Tiempo atmosférico en la estación meteorológica de Medina Sidonia, Cádiz (90 m.)



Fecha
DESCASC
Temp. máxima en grados centígrados (hora)
DESCASC
Temp. mínima en grados centígrados (hora)
DESCASC
Temp. media en grados centígrados
DESCASC
Racha de viento máxima en m/sg (hora)
DESCASC
Velocidad máxima media en intervalos de 10 minutos(hora)
DESCASC
Precipitaciones diarias en mm
DESCASC
Precipitaciones de 00:00 a 06:00 en mm
DESCASC
Precipitaciones de 06:00 a 12:00 en mm
DESCASC
Precipitaciones de 12:00 a 18:00 en mm
DESCASC
Precipitaciones de 18:00 a 24:00 en mm
DESCASC
28-02-2021 16.5 (13:00) 11.7 (01:00) 14.1 18.89 (12:00) 14.17 (12:00) 0 0 0 0 0
27-02-2021 16.5 (14:00) 10.5 (07:50) 13.5 14.17 (13:30) 10.56 (12:50) 0 0 0 0 0
26-02-2021 16.5 (15:30) 12 (11:10) 14.3 15 (16:20) 10.83 (15:00) 10 0.6 9.2 0.2 0
25-02-2021 16.8 (12:30) 13.2 (00:00) 15 19.44 (02:20) 13.61 (01:10) 0 0 0 0 0
24-02-2021 17.1 (14:40) 12.8 (00:00) 15 23.61 (11:40) 16.94 (14:50) 0 0 0 0 0
23-02-2021 17.7 (14:00) 4.9 (00:00) 11.3 14.44 (13:40) 10.56 (15:20) 0 0 0 0 0
22-02-2021 15.2 (14:50) 4.7 (00:00) 9.9 8.33 (15:10) 5.56 (15:40) 0 0 0 0 0
21-02-2021 14.1 (03:40) 9.7 (00:00) 11.9 13.89 (16:50) 8.61 (15:20) 18 0 15.4 2.6 0
20-02-2021 17.9 (13:50) 9.5 (00:00) 13.7 15.28 (22:20) 11.11 (22:20) 0 0 0 0 0
19-02-2021 20.2 (16:50) 6.1 (00:00) 13.2 7.22 (17:30) 4.72 (17:30) 0.2 0.2 0 0 0
18-02-2021 17.6 (17:20) 7.1 (00:00) 12.4 4.72 (12:50) 2.78 (12:00) 0 0 0 0 0
17-02-2021 20.7 (16:30) 6.5 (00:00) 13.6 5.83 (13:10) 4.17 (12:50) 0 0 0 0 0
16-02-2021 18.3 (15:20) 9.1 (00:00) 13.7 18.06 (00:10) 13.06 (00:20) 0 0 0 0 0
15-02-2021 16.7 (14:20) 13 (00:00) 14.9 23.89 (13:10) 17.5 (13:20) 0 0 0 0 0
14-02-2021 19.9 (14:40) 4.5 (00:00) 12.2 18.61 (23:50) 13.33 (16:30) 0 0 0 0 0
13-02-2021 20.6 (17:20) 7.6 (00:00) 14.1 9.17 (05:10) 3.61 (05:10) 0 0 0 0 0
12-02-2021 18.6 (16:00) 10.8 (00:00) 14.7 8.61 (13:10) 5.83 (17:20) 1.2 0 1.2 0 0
11-02-2021 18.3 (14:30) 13.3 (00:00) 15.8 8.33 (18:50) 5.83 (18:30) 0 0 0 0 0
10-02-2021 16.7 (14:40) 13.8 (00:00) 15.3 14.17 (12:20) 9.17 (12:30) 4.4 3 0 0 1.4
09-02-2021 16.6 (14:10) 9 (00:00) 12.8 14.17 (22:10) 8.61 (18:10) 1.8 0.4 0 0.4 1
08-02-2021 16.3 (14:40) 11.4 (00:00) 13.8 26.39 (07:30) 13.61 (07:30) 10.2 2.6 7.6 0 0
07-02-2021 12.9 (15:10) 10.2 (00:00) 11.5 14.72 (14:50) 9.44 (14:50) 2 2 0 0 0
06-02-2021 14.8 (13:10) 9.7 (00:00) 12.3 12.22 (14:40) 8.33 (14:00) 0.6 0.2 0 0.2 0.2
05-02-2021 15.1 (13:50) 9.6 (00:00) 12.4 11.94 (21:10) 5.83 (16:40) 7.6 0 0.8 2 4.8
04-02-2021 17.9 (14:40) 9.3 (00:00) 13.6 8.06 (22:00) 3.89 (12:00) 0 0 0 0 0
03-02-2021 17.7 (15:00) 9.2 (00:00) 13.5 6.67 (14:30) 4.44 (18:00) 0 0 0 0 0

Gráficas

Temp. máximas Temp. mínimas Temp. medias Precipitaciones Rachas de viento máximas Velocidades máximas media en intervalos de 10 minutos

Datos horarios

Fecha y hora oficial Temperatura (ºC) Velocidad del viento (km/h) Dirección del viento Racha (km/h) Dirección de racha Precipitación (mm) Presión (hPa) Tendencia (hPa) Humedad (%)
2021-03-04 23:00:00 14 28 Sudeste 40 Este 0 -- -- 81
2021-03-04 22:00:00 13.8 25 Este 40 Sudeste 0 -- -- 82
2021-03-04 21:00:00 13.5 22 Este 35 Sudeste 0 -- -- 83
2021-03-04 20:00:00 13.7 22 Este 35 Sudeste 0 -- -- 83
2021-03-04 19:00:00 14.3 22 Este 48 Sudeste 0 -- -- 80
2021-03-04 18:00:00 15.2 33 Este 49 Este 0 -- -- 76
2021-03-04 17:00:00 15.9 34 Sudeste 50 Este 0 -- -- 72
2021-03-04 16:00:00 16.2 36 Este 58 Este 0 -- -- 72
2021-03-04 15:00:00 16.8 41 Este 54 Este 0 -- -- 70
2021-03-04 14:00:00 16.9 41 Este 55 Este 0 -- -- 68
2021-03-04 13:00:00 16.2 39 Este 54 Este 0 -- -- 69
2021-03-04 12:00:00 16.1 38 Este 55 Este 0 -- -- 71
2021-03-04 11:00:00 15.7 35 Este 51 Este 0 -- -- 73
2021-03-04 10:00:00 14.8 34 Este 55 Este 0 -- -- 76
2021-03-04 09:00:00 13.5 35 Sudeste 48 Sudeste 0 -- -- 77
2021-03-04 08:00:00 13.1 30 Sudeste 45 Sudeste 0 -- -- 79
2021-03-04 07:00:00 13.3 30 Sudeste 45 Este 0 -- -- 80
2021-03-04 06:00:00 13.3 28 Sudeste 55 Sudeste 0 -- -- 80
2021-03-04 05:00:00 13.4 40 Este 55 Este 0 -- -- 78
2021-03-04 04:00:00 13.5 28 Sudeste 50 Sudeste 0 -- -- 76
2021-03-04 03:00:00 13.6 37 Sudeste 55 Sudeste 0 -- -- 78
2021-03-04 02:00:00 13.6 32 Este 49 Este 0 -- -- 80
2021-03-04 01:00:00 13.5 30 Este 42 Sudeste 0 -- -- 80
2021-03-04 00:00:00 12.7 20 Este 28 Este 0 -- -- 85
2021-03-03 23:00:00 12.8 20 Este 28 Este 0 -- -- 86
2021-03-03 22:00:00 12.4 14 Este 27 Este 0 -- -- 86
2021-03-03 21:00:00 13.3 21 Este 30 Este 0 -- -- 81
2021-03-03 20:00:00 13.8 19 Este 33 Este 0 -- -- 78
2021-03-03 19:00:00 14.8 27 Este 41 Este 0 -- -- 76
2021-03-03 18:00:00 15.9 33 Este 45 Este 0 -- -- 70
2021-03-03 17:00:00 16.3 33 Este 50 Este 0 -- -- 71
2021-03-03 16:00:00 17 35 Este 54 Este 0 -- -- 71
2021-03-03 15:00:00 16.9 35 Este 51 Este 0 -- -- 72
2021-03-03 14:00:00 16.8 34 Sudeste 51 Sudeste 0 -- -- 72
2021-03-03 13:00:00 17.3 37 Sudeste 54 Este 0 -- -- 71
2021-03-03 12:00:00 16.3 38 Este 52 Sudeste 0 -- -- 74
2021-03-03 11:00:00 15.4 35 Sudeste 43 Sudeste 0 -- -- 79
2021-03-03 10:00:00 14.9 35 Sudeste 48 Sudeste 0 -- -- 83
2021-03-03 09:00:00 13.6 22 Este 41 Este 0 -- -- 89
2021-03-03 08:00:00 12.9 23 Este 39 Este 0 -- -- 89
2021-03-03 07:00:00 11.5 21 Este 28 Este 0 -- -- 93
2021-03-03 06:00:00 10.4 2 Norte 13 Este 0 -- -- 93
2021-03-03 05:00:00 10 0 Calma 10 Nordeste 0 -- -- 94
2021-03-03 04:00:00 10.1 3 Este 5 Este 0 -- -- 95
2021-03-03 03:00:00 10.5 0 Calma 5 Sudeste 0 -- -- 93
2021-03-03 02:00:00 11.4 0 Calma 4 Noroeste 0 -- -- 90
2021-03-03 01:00:00 11.5 2 Sudoeste 7 Sudoeste 0 -- -- 92
2021-03-03 00:00:00 10.9 3 Oeste 4 Oeste 0 -- -- 91
2021-03-02 23:00:00 11.5 2 Oeste 5 Noroeste 0 -- -- 90
2021-03-02 22:00:00 12.2 3 Oeste 4 Noroeste 0 -- -- 89
2021-03-02 21:00:00 13.2 -- -- -- -- 0 -- -- 86
2021-03-02 20:00:00 15.1 0 Calma 10 Sudeste 0 -- -- 79
2021-03-02 19:00:00 16.4 8 Sudeste 13 Sudeste 0 -- -- 74
2021-03-02 18:00:00 18.1 8 Sur 14 Sudeste 0 -- -- 66
2021-03-02 17:00:00 18.9 4 Sur 15 Sudeste 0 -- -- 62
2021-03-02 16:00:00 18.8 8 Sudeste 19 Sudeste 0 -- -- 67
2021-03-02 15:00:00 17.9 13 Sudeste 19 Este 0 -- -- 67
2021-03-02 14:00:00 18.1 12 Sudeste 28 Sudeste 0 -- -- 69
2021-03-02 13:00:00 16.8 19 Sudeste 27 Este 0 -- -- 73
2021-03-02 12:00:00 17.5 22 Sudeste 33 Este 0 -- -- 75
2021-03-02 11:00:00 15.6 16 Este 30 Este 0 -- -- 79
2021-03-02 10:00:00 14.4 13 Este 22 Este 0 -- -- 84
2021-03-02 09:00:00 12.8 5 Este 13 Este 0 -- -- 90
2021-03-02 08:00:00 11.9 3 Sudeste 8 Este 0 -- -- 89
2021-03-02 07:00:00 12.1 4 Este 17 Este 0 -- -- 89
2021-03-02 06:00:00 12.8 13 Este 17 Este 0 -- -- 89
2021-03-02 05:00:00 13 12 Este 24 Este 0 -- -- 89
2021-03-02 04:00:00 13.4 15 Este 23 Este 0 -- -- 86
2021-03-02 03:00:00 13.3 15 Este 38 Este 0 -- -- 86
2021-03-02 02:00:00 13.2 15 Este 32 Este 0 -- -- 86
2021-03-02 01:00:00 12.7 12 Este 18 Este 0 -- -- 89
2021-03-02 00:00:00 12.4 9 Este 13 Este 0 -- -- 89
2021-03-01 23:00:00 12.1 7 Este 11 Este 0 -- -- 87
2021-03-01 22:00:00 12.9 7 Sudeste 12 Sudeste 0 -- -- 83
2021-03-01 21:00:00 13.6 9 Este 18 Este 0 -- -- 81
2021-03-01 20:00:00 14.2 12 Este 30 Este 0 -- -- 81
2021-03-01 19:00:00 15.3 21 Este 33 Este 0 -- -- 73
2021-03-01 18:00:00 15.7 20 Este 39 Este 0 -- -- 74
2021-03-01 17:00:00 15.9 28 Este 44 Este 0 -- -- 73
2021-03-01 16:00:00 16.1 35 Este 51 Sudeste 0 -- -- 71
2021-03-01 15:00:00 16.8 35 Este 47 Sudeste 0 -- -- 70
2021-03-01 14:00:00 17.4 29 Este 50 Este 0 -- -- 72
2021-03-01 13:00:00 15.9 33 Este 48 Este 0 -- -- 77
2021-03-01 12:00:00 15.4 25 Este 35 Este 0 -- -- 80
2021-03-01 11:00:00 14.4 21 Este 33 Este 0 -- -- 82
2021-03-01 10:00:00 14 19 Este 25 Este 0 -- -- 83
2021-03-01 09:00:00 13 15 Este 28 Este 0 -- -- 87
2021-03-01 08:00:00 12.2 10 Este 19 Este 0 -- -- 89
2021-03-01 07:00:00 12.4 12 Este 28 Este 0 -- -- 88
2021-03-01 06:00:00 12.1 14 Este 24 Este 0 -- -- 88
2021-03-01 05:00:00 12.1 10 Sudeste 27 Sudeste 0.2 -- -- 88
2021-03-01 04:00:00 12.2 22 Este 46 Este 0.4 -- -- 89
2021-03-01 03:00:00 12.4 36 Este 53 Este 0.2 -- -- 90
2021-03-01 02:00:00 13 29 Sudeste 56 Sudeste 0 -- -- 84
2021-03-01 01:00:00 13.4 28 Sudeste 50 Este 0 -- -- 82
2021-03-01 00:00:00 13.8 34 Este 51 Este 0 -- -- 82
2021-02-28 23:00:00 14.2 32 Este 50 Sudeste 0 -- -- 81
2021-02-28 22:00:00 14.2 31 Este 49 Sudeste 0 -- -- 81
2021-02-28 21:00:00 13.7 28 Este 40 Este 0 -- -- 81
2021-02-28 20:00:00 13.9 32 Este 47 Este 0 -- -- 78
2021-02-28 19:00:00 14.3 39 Este 54 Este 0 -- -- 76
2021-02-28 18:00:00 15.3 34 Este 58 Este 0 -- -- 74
2021-02-28 17:00:00 15.9 38 Este 59 Este 0 -- -- 71
2021-02-28 16:00:00 15.4 42 Este 61 Sudeste 0 -- -- 73
2021-02-28 15:00:00 15.9 46 Este 62 Sudeste 0 -- -- 72
2021-02-28 14:00:00 15.8 42 Este 62 Este 0 -- -- 73
2021-02-28 13:00:00 16.5 39 Este 66 Este 0 -- -- 74
2021-02-28 12:00:00 15.1 51 Este 68 Este 0 -- -- 77
2021-02-28 11:00:00 14.2 38 Este 57 Este 0 -- -- 81
2021-02-28 10:00:00 13.3 30 Este 42 Este 0 -- -- 85
2021-02-28 09:00:00 13.1 26 Este 36 Este 0 -- -- 84
2021-02-28 08:00:00 13 23 Sudeste 41 Sudeste 0 -- -- 84
2021-02-28 07:00:00 12.6 26 Sudeste 39 Sudeste 0 -- -- 84
2021-02-28 06:00:00 12.4 23 Sudeste 42 Sudeste 0 -- -- 83
2021-02-28 05:00:00 12.7 31 Este 49 Este 0 -- -- 79
2021-02-28 04:00:00 12.7 26 Este 44 Este 0 -- -- 82
2021-02-28 03:00:00 12.8 26 Este 42 Este 0 -- -- 81
2021-02-28 02:00:00 12.8 25 Este 37 Este 0 -- -- 81
2021-02-28 01:00:00 11.7 15 Este 23 Este 0 -- -- 86
2021-02-28 00:00:00 12.8 6 Este 36 Este 0 -- -- 83
2021-02-27 23:00:00 13.1 26 Este 39 Este 0 -- -- 81
2021-02-27 22:00:00 13 18 Este 25 Nordeste 0 -- -- 82
2021-02-27 21:00:00 13 17 Este 33 Este 0 -- -- 82
2021-02-27 20:00:00 13.1 26 Este 50 Sudeste 0 -- -- 80
2021-02-27 19:00:00 13.9 20 Sudeste 39 Este 0 -- -- 76
2021-02-27 18:00:00 15.2 28 Este 41 Este 0 -- -- 72
2021-02-27 17:00:00 15.8 31 Sudeste 45 Este 0 -- -- 72
2021-02-27 16:00:00 16 33 Este 46 Este 0 -- -- 71
2021-02-27 15:00:00 15.7 33 Este 49 Este 0 -- -- 72
2021-02-27 14:00:00 16.5 24 Este 51 Este 0 -- -- 73
2021-02-27 13:00:00 15.3 33 Este 50 Sudeste 0 -- -- 72
2021-02-27 12:00:00 14.8 18 Este 32 Este 0 -- -- 78
2021-02-27 11:00:00 14.2 23 Este 32 Este 0 -- -- 77
2021-02-27 10:00:00 11.9 3 Oeste 13 Nordeste 0 -- -- 86
2021-02-27 09:00:00 10.8 7 Nordeste 22 Este 0 -- -- 87
2021-02-27 08:00:00 11.5 19 Este 28 Sudeste 0 -- -- 87
2021-02-27 07:00:00 10.8 17 Este 29 Este 0 -- -- 89
2021-02-27 06:00:00 11.8 19 Este 24 Este 0 -- -- 83
2021-02-27 05:00:00 12.2 9 Este 31 Este 0 -- -- 83
2021-02-27 04:00:00 12.9 24 Este 41 Este 0 -- -- 81
2021-02-27 03:00:00 13.1 27 Este 36 Este 0 -- -- 82
2021-02-27 02:00:00 12.5 15 Este 31 Este 0 -- -- 85
2021-02-27 01:00:00 12.7 22 Este 31 Este 0 -- -- 85
2021-02-27 00:00:00 12.8 22 Este 28 Este 0 -- -- 85
2021-02-26 23:00:00 12.6 12 Este 24 Este 0 -- -- 85
2021-02-26 22:00:00 13.1 18 Este 28 Este 0 -- -- 84
2021-02-26 21:00:00 13.2 22 Este 29 Este 0 -- -- 82
2021-02-26 20:00:00 13.1 13 Este 28 Este 0 -- -- 86
2021-02-26 19:00:00 14 21 Este 37 Este 0 -- -- 83
2021-02-26 18:00:00 14.7 25 Este 41 Este 0 -- -- 81
2021-02-26 17:00:00 15.1 30 Este 54 Sudeste 0 -- -- 80
2021-02-26 16:00:00 16.2 35 Este 49 Sudeste 0 -- -- 79
2021-02-26 15:00:00 16.3 39 Sudeste 51 Este 0 -- -- 79
2021-02-26 14:00:00 15 32 Sudeste 47 Este 0 -- -- 84
2021-02-26 13:00:00 14.4 26 Este 34 Este 0.2 -- -- 93
2021-02-26 12:00:00 12.2 0 Calma 5 Nordeste 1 -- -- 96
2021-02-26 11:00:00 12.1 3 Este 12 Este 3.4 -- -- 96
2021-02-26 10:00:00 12.1 6 Este 14 Sudeste 2.8 -- -- 95
2021-02-26 09:00:00 12.6 6 Sur 19 Sur 2 -- -- 91
2021-02-26 08:00:00 13.5 9 Sudeste 22 Sudeste 0 -- -- 88
2021-02-26 07:00:00 13.5 13 Sudeste 21 Este 0 -- -- 88
2021-02-26 06:00:00 13.6 15 Este 33 Este 0 -- -- 88
2021-02-26 05:00:00 13.4 18 Este 31 Sudeste 0.2 -- -- 89
2021-02-26 04:00:00 13.6 21 Sudeste 36 Sudeste 0.4 -- -- 89
2021-02-26 03:00:00 13.9 24 Sudeste 35 Este 0 -- -- 84
2021-02-26 02:00:00 14.2 27 Sudeste 42 Este 0 -- -- 82
2021-02-26 01:00:00 14.2 21 Sudeste 44 Sudeste 0 -- -- 84
2021-02-26 00:00:00 13.9 23 Este 33 Sudeste 0 -- -- 84
2021-02-25 23:00:00 13.4 14 Este 30 Este 0 -- -- 86
2021-02-25 22:00:00 14.3 20 Este 32 Este 0 -- -- 82
2021-02-25 21:00:00 14.1 22 Este 34 Este 0 -- -- 83
2021-02-25 20:00:00 14.3 18 Este 36 Este 0 -- -- 80
2021-02-25 19:00:00 14.7 24 Este 37 Este 0 -- -- 80
2021-02-25 18:00:00 15.4 27 Este 42 Este 0 -- -- 79
2021-02-25 17:00:00 15.6 28 Este 42 Sudeste 0 -- -- 79
2021-02-25 16:00:00 15.7 32 Este 42 Este 0 -- -- 79
2021-02-25 15:00:00 16.6 30 Este 41 Este 0 -- -- 76
2021-02-25 14:00:00 16 31 Sudeste 49 Este 0 -- -- 78
2021-02-25 13:00:00 16.7 36 Sudeste 57 Este 0 -- -- 76
2021-02-25 12:00:00 16.5 38 Sudeste 53 Este 0 -- -- 77
2021-02-25 11:00:00 15.6 33 Este 52 Este 0 -- -- 81
2021-02-25 10:00:00 14.6 34 Este 51 Este 0 -- -- 84
2021-02-25 09:00:00 13.5 28 Este 41 Sudeste 0 -- -- 87
2021-02-25 08:00:00 13.2 30 Este 42 Este 0 -- -- 88
2021-02-25 07:00:00 13.3 24 Este 48 Este 0 -- -- 88
2021-02-25 06:00:00 13.4 21 Este 44 Sudeste 0 -- -- 87
2021-02-25 05:00:00 13.4 27 Sudeste 54 Sudeste 0 -- -- 86
2021-02-25 04:00:00 13.5 33 Este 58 Sudeste 0 -- -- 85
2021-02-25 03:00:00 13.8 41 Este 70 Sudeste 0 -- -- 83
2021-02-25 02:00:00 14.1 46 Este 67 Este 0 -- -- 80
2021-02-25 01:00:00 14.1 46 Sudeste 69 Este 0 -- -- 80
2021-02-25 00:00:00 14.1 42 Sudeste 66 Sudeste 0 -- -- 80
2021-02-24 23:00:00 14.1 42 Sudeste 65 Sudeste 0 -- -- 80
2021-02-24 22:00:00 14.1 42 Sudeste 58 Este 0 -- -- 78
2021-02-24 21:00:00 14 30 Sudeste 52 Este 0 -- -- 81
2021-02-24 20:00:00 14.3 33 Sudeste 54 Sudeste 0 -- -- 78
2021-02-24 19:00:00 14.6 29 Sudeste 55 Este 0 -- -- 78
2021-02-24 18:00:00 15.5 34 Sudeste 67 Sudeste 0 -- -- 73
2021-02-24 17:00:00 16.1 41 Sudeste 75 Este 0 -- -- 72
2021-02-24 16:00:00 16.6 51 Este 77 Sudeste 0 -- -- 71
2021-02-24 15:00:00 16.8 52 Sudeste 80 Sudeste 0 -- -- 71
2021-02-24 14:00:00 16.9 54 Sudeste 79 Este 0 -- -- 71
2021-02-24 13:00:00 16.4 50 Sudeste 78 Sudeste 0 -- -- 72
2021-02-24 12:00:00 15.7 58 Sudeste 85 Este 0 -- -- 73
2021-02-24 11:00:00 15.5 53 Este 76 Este 0 -- -- 74
2021-02-24 10:00:00 14.8 42 Este 66 Este 0 -- -- 78
2021-02-24 09:00:00 14.4 42 Sudeste 65 Este 0 -- -- 79
2021-02-24 08:00:00 14.4 38 Sudeste 62 Sudeste 0 -- -- 79
2021-02-24 07:00:00 14.1 37 Este 61 Este 0 -- -- 80
2021-02-24 06:00:00 14.4 44 Sudeste 62 Este 0 -- -- 78
2021-02-24 05:00:00 14.2 38 Sudeste 58 Este 0 -- -- 79
2021-02-24 04:00:00 14.1 38 Sudeste 57 Este 0 -- -- 78
2021-02-24 03:00:00 13.4 38 Este 61 Este 0 -- -- 77
2021-02-24 02:00:00 13.4 54 Este 80 Este 0 -- -- 75
2021-02-24 01:00:00 13.1 35 Este 58 Este 0 -- -- 77
2021-02-24 00:00:00 12.8 27 Este 43 Sudeste 0 -- -- 78
2021-02-23 23:00:00 12.4 17 Este 36 Este 0 -- -- 81
2021-02-23 22:00:00 12.2 27 Este 39 Este 0 -- -- 82
2021-02-23 21:00:00 12.2 24 Este 37 Este 0 -- -- 82
2021-02-23 20:00:00 11.7 21 Este 37 Este 0 -- -- 79
2021-02-23 19:00:00 13.7 21 Este 43 Este 0 -- -- 72
2021-02-23 18:00:00 15.7 32 Este 45 Este 0 -- -- 64
2021-02-23 17:00:00 16.6 33 Este 46 Este 0 -- -- 58
2021-02-23 16:00:00 17.3 33 Sudeste 50 Este 0 -- -- 53
2021-02-23 15:00:00 17.6 35 Este 51 Este 0 -- -- 49
2021-02-23 14:00:00 17.7 30 Este 52 Este 0 -- -- 50
2021-02-23 13:00:00 17.4 28 Este 39 Sudeste 0 -- -- 51
2021-02-23 12:00:00 16.3 10 Sudeste 19 Sudeste 0 -- -- 59
2021-02-23 11:00:00 13.4 6 Este 10 Este 0 -- -- 73
2021-02-23 10:00:00 10 2 Noroeste 4 Este 0 -- -- 89
2021-02-23 09:00:00 6.6 3 Oeste 6 Noroeste 0 -- -- 96
2021-02-23 08:00:00 5.4 4 Oeste 6 Noroeste 0 -- -- 98
2021-02-23 07:00:00 5.6 6 Noroeste 9 Noroeste 0 -- -- 98
2021-02-23 06:00:00 5.6 2 Oeste 7 Noroeste 0 -- -- 97
2021-02-23 05:00:00 6.1 2 Noroeste 7 Oeste 0 -- -- 97
2021-02-23 04:00:00 6 0 Calma 5 Oeste 0 -- -- 97
2021-02-23 03:00:00 5.7 3 Noroeste 6 Oeste 0 -- -- 96
2021-02-23 02:00:00 6.8 4 Oeste 6 Oeste 0 -- -- 96
2021-02-23 01:00:00 6.5 3 Noroeste 6 Oeste 0 -- -- 96
2021-02-23 00:00:00 7.1 0 Calma 4 Noroeste 0 -- -- 93
2021-02-22 23:00:00 8.1 3 Oeste 5 Noroeste 0 -- -- 94
2021-02-22 22:00:00 8.6 3 Norte 8 Este 0 -- -- 92
2021-02-22 21:00:00 10.2 3 Oeste 9 Oeste 0 -- -- 87
2021-02-22 20:00:00 11 10 Oeste 17 Oeste 0 -- -- 85
2021-02-22 19:00:00 12.8 15 Oeste 21 Oeste 0 -- -- 78
2021-02-22 18:00:00 14.5 17 Oeste 23 Oeste 0 -- -- 69
2021-02-22 17:00:00 14.1 10 Sudoeste 26 Oeste 0 -- -- 72
2021-02-22 16:00:00 15.1 18 Oeste 30 Oeste 0 -- -- 66
2021-02-22 15:00:00 14.9 18 Oeste 28 Sudoeste 0 -- -- 67
2021-02-22 14:00:00 14.9 14 Oeste 23 Oeste 0 -- -- 60
2021-02-22 13:00:00 14.6 5 Sudoeste 18 Sudeste 0 -- -- 68
2021-02-22 12:00:00 13.9 9 Sudeste 14 Sudeste 0 -- -- 70
2021-02-22 11:00:00 11.8 8 Sudeste 11 Este 0 -- -- 83
2021-02-22 10:00:00 9.2 5 Este 8 Este 0 -- -- 89
2021-02-22 09:00:00 6.2 5 Este 9 Nordeste 0 -- -- 96
2021-02-22 08:00:00 4.7 6 Este 10 Este 0 -- -- 96
2021-02-22 07:00:00 5.3 4 Noroeste 7 Noroeste 0 -- -- 96
2021-02-22 06:00:00 5 4 Oeste 5 Oeste 0 -- -- 92
2021-02-22 05:00:00 6.7 2 Nordeste 6 Noroeste 0 -- -- 88
2021-02-22 04:00:00 7.7 4 Noroeste 10 Oeste 0 -- -- 87
2021-02-22 03:00:00 7.6 4 Noroeste 10 Noroeste 0 -- -- 87
2021-02-22 02:00:00 8.6 5 Noroeste 17 Oeste 0 -- -- 84
2021-02-22 01:00:00 10.2 12 Oeste 21 Oeste 0 -- -- 78
2021-02-22 00:00:00 11.1 10 Noroeste 19 Noroeste 0 -- -- 79
2021-02-21 23:00:00 9.7 9 Oeste 17 Noroeste 0 -- -- 82
2021-02-21 22:00:00 10.7 11 Noroeste 21 Oeste 0 -- -- 77
2021-02-21 21:00:00 11.6 9 Noroeste 25 Oeste 0 -- -- 80
2021-02-21 20:00:00 11 12 Oeste 25 Oeste 0 -- -- 83
2021-02-21 19:00:00 12 15 Oeste 35 Noroeste 0 -- -- 77
2021-02-21 18:00:00 13.2 27 Oeste 44 Oeste 0 -- -- 67
2021-02-21 17:00:00 12.9 30 Oeste 50 Oeste 0 -- -- 69
2021-02-21 16:00:00 12.2 23 Noroeste 43 Noroeste 0 -- -- 80
2021-02-21 15:00:00 12.2 23 Oeste 37 Oeste 0 -- -- 82
2021-02-21 14:00:00 11.4 15 Noroeste 22 Oeste 0 -- -- 90
2021-02-21 13:00:00 11 9 Noroeste 22 Oeste 2.6 -- -- 93
2021-02-21 12:00:00 11.4 8 Oeste 21 Oeste 7.2 -- -- 93
2021-02-21 11:00:00 12.2 8 Sudoeste 24 Oeste 2.2 -- -- 91
2021-02-21 10:00:00 12.3 15 Oeste 48 Sudoeste 1.8 -- -- 90
2021-02-21 09:00:00 13.2 27 Sudoeste 48 Sudoeste 4.2 -- -- 89
2021-02-21 08:00:00 13.2 9 Sudeste 16 Sudeste 0 -- -- 82
2021-02-21 07:00:00 12.9 3 Sur 12 Sudeste 0 -- -- 84
2021-02-21 06:00:00 12.9 3 Sudeste 6 Sudeste 0 -- -- 87
2021-02-21 05:00:00 13.3 7 Sudeste 14 Sudeste 0 -- -- 85
2021-02-21 04:00:00 13.9 3 Sur 19 Sudeste 0 -- -- 81
2021-02-21 03:00:00 13.6 12 Sudeste 18 Sudeste 0 -- -- 84
2021-02-21 02:00:00 13 4 Nordeste 12 Este 0 -- -- 85
2021-02-21 01:00:00 13 5 Este 20 Este 0 -- -- 85
2021-02-21 00:00:00 13.4 10 Sudeste 43 Este 0 -- -- 82
2021-02-20 23:00:00 13.5 28 Sudeste 55 Este 0 -- -- 82
2021-02-20 22:00:00 13.5 37 Sudeste 53 Sudeste 0 -- -- 83
2021-02-20 21:00:00 13.6 30 Sudeste 46 Este 0 -- -- 82
2021-02-20 20:00:00 13.8 23 Sudeste 37 Sudeste 0 -- -- 81
2021-02-20 19:00:00 14.3 22 Sudeste 33 Sudeste 0 -- -- 80
2021-02-20 18:00:00 15.9 24 Sudeste 38 Este 0 -- -- 74
2021-02-20 17:00:00 16.7 24 Este 40 Este 0 -- -- 74
2021-02-20 16:00:00 17.4 33 Este 48 Este 0 -- -- 71
2021-02-20 15:00:00 17.7 31 Este 48 Este 0 -- -- 70
2021-02-20 14:00:00 17.7 33 Sudeste 46 Este 0 -- -- 72
2021-02-20 13:00:00 17.2 32 Este 44 Este 0 -- -- 70
2021-02-20 12:00:00 16.3 31 Sudeste 45 Este 0 -- -- 74
2021-02-20 11:00:00 15.6 32 Sudeste 42 Sudeste 0 -- -- 77
2021-02-20 10:00:00 13.6 12 Sudeste 23 Sudeste 0 -- -- 86
2021-02-20 09:00:00 11.9 6 Sudeste 17 Sudeste 0 -- -- 89
2021-02-20 08:00:00 11.9 9 Sudeste 26 Sudeste 0 -- -- 88
2021-02-20 07:00:00 11.8 15 Sudeste 24 Sudeste 0 -- -- 89
2021-02-20 06:00:00 11.9 16 Sudeste 25 Sudeste 0 -- -- 90
2021-02-20 05:00:00 11.5 11 Sudeste 16 Sudeste 0 -- -- 91
2021-02-20 04:00:00 11.6 12 Sudeste 21 Sudeste 0 -- -- 89
2021-02-20 03:00:00 11.4 13 Sudeste 24 Sudeste 0 -- -- 88
2021-02-20 02:00:00 10.6 13 Sudeste 20 Sudeste 0 -- -- 90
2021-02-20 01:00:00 10.2 10 Sudeste 15 Sudeste 0 -- -- 91
2021-02-20 00:00:00 9.5 0 Calma 5 Sur 0 -- -- 94
2021-02-19 23:00:00 10.1 2 Oeste 6 Oeste 0 -- -- 92
2021-02-19 22:00:00 11.2 5 Oeste 9 Oeste 0 -- -- 89
2021-02-19 21:00:00 12.4 2 Norte 10 Sudeste 0 -- -- 87
2021-02-19 20:00:00 13.1 4 Sudeste 10 Este 0 -- -- 89
2021-02-19 19:00:00 15.5 2 Oeste 22 Oeste 0 -- -- 81
2021-02-19 18:00:00 17.6 17 Oeste 26 Oeste 0 -- -- 75
2021-02-19 17:00:00 20.2 8 Sudoeste 17 Sudeste 0 -- -- 67
2021-02-19 16:00:00 20 8 Sudeste 17 Sudeste 0 -- -- 64
2021-02-19 15:00:00 19.1 8 Sudeste 15 Sur 0 -- -- 68
2021-02-19 14:00:00 17.7 8 Sudeste 14 Sudeste 0 -- -- 72
2021-02-19 13:00:00 16.3 6 Sur 14 Sudeste 0 -- -- 79
2021-02-19 12:00:00 13.7 4 Sur 7 Sudeste 0 -- -- 91
2021-02-19 11:00:00 10.9 2 Noroeste 4 Noroeste 0 -- -- 99
2021-02-19 10:00:00 8.9 0 Calma 5 Este 0 -- -- 99
2021-02-19 09:00:00 7.5 4 Oeste 5 Oeste 0 -- -- 99
2021-02-19 08:00:00 6.4 2 Este 3 Oeste 0 -- -- 99
2021-02-19 07:00:00 6.3 0 Calma 4 Nordeste 0 -- -- 98
2021-02-19 06:00:00 6.6 0 Calma 2 Este 0.2 -- -- 98
2021-02-19 05:00:00 6.8 0 Calma 4 Este 0 -- -- 98
2021-02-19 04:00:00 6.8 0 Calma 3 Este 0 -- -- 98
2021-02-19 03:00:00 7.2 0 Calma 5 Nordeste 0 -- -- 98
2021-02-19 02:00:00 7.7 3 Noroeste 6 Noroeste 0 -- -- 98
2021-02-19 01:00:00 7 3 Oeste 5 Oeste 0 -- -- 96
2021-02-19 00:00:00 8.3 2 Norte 5 Noroeste 0 -- -- 94
2021-02-18 23:00:00 9.7 0 Calma 4 Oeste 0 -- -- 92
2021-02-18 22:00:00 10.6 3 Noroeste 4 Noroeste 0 -- -- 89
2021-02-18 21:00:00 11.9 0 Calma 9 Oeste 0 -- -- 89
2021-02-18 20:00:00 12.9 7 Noroeste 12 Noroeste 0 -- -- 86
2021-02-18 19:00:00 15.3 3 Oeste 8 Sur 0 -- -- 78
2021-02-18 18:00:00 17.4 4 Sudeste 9 Sudeste 0 -- -- 69
2021-02-18 17:00:00 17.2 5 Sudeste 13 Sudeste 0 -- -- 72
2021-02-18 16:00:00 16.6 8 Sudeste 14 Sudeste 0 -- -- 73
2021-02-18 15:00:00 16.2 7 Sudeste 16 Sur 0 -- -- 73
2021-02-18 14:00:00 15.9 7 Sur 16 Sur 0 -- -- 76
2021-02-18 13:00:00 14.8 8 Sudoeste 17 Sudoeste 0 -- -- 79
2021-02-18 12:00:00 14 10 Oeste 15 Oeste 0 -- -- 81
2021-02-18 11:00:00 12.5 9 Sudeste 13 Sudeste 0 -- -- 94
2021-02-18 10:00:00 9.8 4 Este 6 Este 0 -- -- 99
2021-02-18 09:00:00 7.3 0 Calma 4 Noroeste 0 -- -- 99
2021-02-18 08:00:00 7.5 0 Calma 5 Este 0 -- -- 98
2021-02-18 07:00:00 7.9 2 Este 6 Sudeste 0 -- -- 98
2021-02-18 06:00:00 9.1 4 Este 6 Sudeste 0 -- -- 98
2021-02-18 05:00:00 9.5 0 Calma 5 Nordeste 0 -- -- 98
2021-02-18 04:00:00 10 4 Nordeste 6 Nordeste 0 -- -- 98
2021-02-18 03:00:00 10.7 3 Nordeste 9 Norte 0 -- -- 98
2021-02-18 02:00:00 10.8 2 Norte 4 Norte 0 -- -- 97
2021-02-18 01:00:00 10.3 0 Calma 7 Oeste 0 -- -- 96
2021-02-18 00:00:00 10 3 Oeste 7 Oeste 0 -- -- 93
2021-02-17 23:00:00 11.7 2 Noroeste 10 Noroeste 0 -- -- 90
2021-02-17 22:00:00 12 5 Oeste 9 Oeste 0 -- -- 92
2021-02-17 21:00:00 12.7 4 Noroeste 8 Oeste 0 -- -- 88
2021-02-17 20:00:00 14.3 5 Oeste 10 Oeste 0 -- -- 85
2021-02-17 19:00:00 16.4 6 Oeste 12 Oeste 0 -- -- 78
2021-02-17 18:00:00 18.5 8 Oeste 18 Oeste 0 -- -- 71
2021-02-17 17:00:00 19.3 12 Noroeste 17 Noroeste 0 -- -- 68
2021-02-17 16:00:00 20.3 4 Este 14 Sudeste 0 -- -- 63
2021-02-17 15:00:00 19.5 8 Este 18 Sudeste 0 -- -- 61
2021-02-17 14:00:00 18.6 14 Este 21 Sudeste 0 -- -- 66
2021-02-17 13:00:00 17.7 11 Este 21 Este 0 -- -- 70
2021-02-17 12:00:00 16.6 4 Sudeste 9 Sudeste 0 -- -- 75
2021-02-17 11:00:00 14.7 6 Este 12 Este 0 -- -- 82
2021-02-17 10:00:00 10.9 0 Calma 5 Sudoeste 0 -- -- 97
2021-02-17 09:00:00 7.8 3 Sudoeste 5 Oeste 0 -- -- 98
2021-02-17 08:00:00 7.3 3 Oeste 6 Sudoeste 0 -- -- 98
2021-02-17 07:00:00 7.1 3 Sudoeste 5 Sudoeste 0 -- -- 97
2021-02-17 06:00:00 6.7 2 Oeste 5 Oeste 0 -- -- 96
2021-02-17 05:00:00 6.9 4 Oeste 5 Oeste 0 -- -- 95
2021-02-17 04:00:00 7.9 3 Oeste 6 Oeste 0 -- -- 96
2021-02-17 03:00:00 8.4 3 Noroeste 6 Oeste 0 -- -- 96
2021-02-17 02:00:00 8.1 2 Sudoeste 5 Sudoeste 0 -- -- 94
2021-02-17 01:00:00 8.6 2 Oeste 4 Oeste 0 -- -- 94
2021-02-17 00:00:00 9.1 2 Oeste 5 Noroeste 0 -- -- 92
2021-02-16 23:00:00 9.8 2 Noroeste 4 Noroeste 0 -- -- 89
2021-02-16 22:00:00 10.4 0 Calma 5 Este 0 -- -- 89
2021-02-16 21:00:00 11.8 0 Calma 8 Nordeste 0 -- -- 84
2021-02-16 20:00:00 13 2 Noroeste 12 Este 0 -- -- 80
2021-02-16 19:00:00 14.3 8 Este 23 Sudeste 0 -- -- 77
2021-02-16 18:00:00 16.7 19 Este 31 Este 0 -- -- 68
2021-02-16 17:00:00 17.8 23 Sudeste 35 Este 0 -- -- 65
2021-02-16 16:00:00 18.3 24 Sudeste 36 Este 0 -- -- 64
2021-02-16 15:00:00 18 27 Este 39 Este 0 -- -- 65
2021-02-16 14:00:00 17.7 32 Este 45 Este 0 -- -- 66
2021-02-16 13:00:00 17.1 31 Este 46 Sudeste 0 -- -- 66
2021-02-16 12:00:00 16.3 35 Este 53 Este 0 -- -- 69
2021-02-16 11:00:00 15.3 35 Este 51 Este 0 -- -- 72
2021-02-16 10:00:00 14.2 35 Este 51 Sudeste 0 -- -- 75
2021-02-16 09:00:00 12.9 31 Este 56 Sudeste 0 -- -- 79
2021-02-16 08:00:00 12.2 34 Sudeste 51 Sudeste 0 -- -- 81
2021-02-16 07:00:00 12.3 36 Este 56 Este 0 -- -- 79
2021-02-16 06:00:00 12.4 39 Este 57 Sudeste 0 -- -- 79
2021-02-16 05:00:00 12.4 34 Este 59 Este 0 -- -- 79
2021-02-16 04:00:00 12.5 34 Este 58 Sudeste 0 -- -- 80
2021-02-16 03:00:00 12.6 34 Este 59 Este 0 -- -- 80
2021-02-16 02:00:00 12.8 39 Sudeste 64 Este 0 -- -- 79
2021-02-16 01:00:00 12.9 42 Sudeste 65 Este 0 -- -- 78
2021-02-16 00:00:00 13 44 Sudeste 74 Sudeste 0 -- -- 78
2021-02-15 23:00:00 13.2 48 Este 68 Este 0 -- -- 76
2021-02-15 22:00:00 13.2 45 Sudeste 68 Este 0 -- -- 76
2021-02-15 21:00:00 13.1 43 Este 75 Este 0 -- -- 78
2021-02-15 20:00:00 13.3 48 Este 68 Este 0 -- -- 78
2021-02-15 19:00:00 13.7 51 Este 76 Este 0 -- -- 76
2021-02-15 18:00:00 14.8 50 Este 82 Sudeste 0 -- -- 71
2021-02-15 17:00:00 15.7 58 Este 77 Este 0 -- -- 69
2021-02-15 16:00:00 16.3 54 Este 84 Este 0 -- -- 68
2021-02-15 15:00:00 16.4 57 Este 80 Este 0 -- -- 68
2021-02-15 14:00:00 16.5 56 Este 86 Este 0 -- -- 67
2021-02-15 13:00:00 16.3 57 Este 85 Este 0 -- -- 67
2021-02-15 12:00:00 16 57 Este 85 Sudeste 0 -- -- 68
2021-02-15 11:00:00 15.4 57 Este 81 Este 0 -- -- 70
2021-02-15 10:00:00 14.7 56 Este 81 Este 0 -- -- 72
2021-02-15 09:00:00 13.9 53 Este 77 Este 0 -- -- 75
2021-02-15 08:00:00 13.4 47 Este 68 Este 0 -- -- 77
2021-02-15 07:00:00 13.3 43 Este 71 Este 0 -- -- 80
2021-02-15 06:00:00 13.4 46 Este 73 Este 0 -- -- 78
2021-02-15 05:00:00 13.5 49 Este 77 Este 0 -- -- 77
2021-02-15 04:00:00 13.5 49 Este 76 Sudeste 0 -- -- 78
2021-02-15 03:00:00 13.6 51 Este 74 Este 0 -- -- 78
2021-02-15 02:00:00 13.7 54 Este 78 Este 0 -- -- 77
2021-02-15 01:00:00 13.6 51 Este 76 Este 0 -- -- 77
2021-02-15 00:00:00 13.7 45 Este 67 Este 0 -- -- 74
2021-02-14 23:00:00 13.7 43 Este 64 Este 0 -- -- 77
2021-02-14 22:00:00 13.7 40 Este 58 Este 0 -- -- 78
2021-02-14 21:00:00 13.7 32 Sudeste 60 Este 0 -- -- 78
2021-02-14 20:00:00 14.5 42 Este 58 Este 0 -- -- 63
2021-02-14 19:00:00 15 37 Este 53 Este 0 -- -- 61
2021-02-14 18:00:00 16.3 39 Este 55 Este 0 -- -- 57
2021-02-14 17:00:00 17.4 42 Este 62 Este 0 -- -- 56
2021-02-14 16:00:00 19 46 Este 64 Este 0 -- -- 49
2021-02-14 15:00:00 19.7 45 Este 60 Este 0 -- -- 46
2021-02-14 14:00:00 19.6 40 Este 58 Este 0 -- -- 46
2021-02-14 13:00:00 18.9 39 Este 55 Este 0 -- -- 48
2021-02-14 12:00:00 17.9 31 Sudeste 44 Este 0 -- -- 49
2021-02-14 11:00:00 16.6 23 Sudeste 36 Este 0 -- -- 59
2021-02-14 10:00:00 13.9 18 Sudeste 28 Sudeste 0 -- -- 73
2021-02-14 09:00:00 9.1 3 Sudeste 8 Sudeste 0 -- -- 81
2021-02-14 08:00:00 6.3 4 Oeste 7 Oeste 0 -- -- 81
2021-02-14 07:00:00 5.4 5 Noroeste 7 Oeste 0 -- -- 85
2021-02-14 06:00:00 4.7 2 Noroeste 9 Oeste 0 -- -- 89
2021-02-14 05:00:00 4.9 5 Noroeste 8 Noroeste 0 -- -- 87
2021-02-14 04:00:00 6.2 2 Oeste 6 Oeste 0 -- -- 85
2021-02-14 03:00:00 7 3 Oeste 8 Oeste 0 -- -- 78
2021-02-14 02:00:00 8 5 Oeste 8 Oeste 0 -- -- 73
2021-02-14 01:00:00 9.9 2 Oeste 15 Norte 0 -- -- 68
2021-02-14 00:00:00 7.6 4 Norte 13 Noroeste 0 -- -- 83
2021-02-13 23:00:00 9.3 0 Calma 6 Oeste 0 -- -- 80
2021-02-13 22:00:00 11 3 Noroeste 12 Noroeste 0 -- -- 72
2021-02-13 21:00:00 14.7 9 Noroeste 20 Norte 0 -- -- 65
2021-02-13 20:00:00 15.7 10 Norte 18 Norte 0 -- -- 61
2021-02-13 19:00:00 16.6 5 Noroeste 17 Norte 0 -- -- 61
2021-02-13 18:00:00 19.6 9 Norte 15 Norte 0 -- -- 54
2021-02-13 17:00:00 20.2 8 Norte 23 Noroeste 0 -- -- 57
2021-02-13 16:00:00 20.1 6 Norte 17 Noroeste 0 -- -- 60
2021-02-13 15:00:00 19.2 7 Nordeste 16 Nordeste 0 -- -- 61
2021-02-13 14:00:00 18.5 6 Norte 17 Noroeste 0 -- -- 63
2021-02-13 13:00:00 18.4 6 Norte 18 Nordeste 0 -- -- 60
2021-02-13 08:00:00 -- -- -- -- -- -- -- -- --
2021-02-13 07:00:00 11.3 9 Norte 26 Norte 0 -- -- 79
2021-02-13 06:00:00 12.7 13 Norte 33 Noroeste 0 -- -- 74
2021-02-13 05:00:00 12.5 11 Norte 22 Norte 0 -- -- 77
2021-02-13 04:00:00 12.3 8 Norte 21 Norte 0 -- -- 80
2021-02-13 03:00:00 8.9 3 Oeste 5 Oeste 0 -- -- 95
2021-02-13 02:00:00 10.1 3 Noroeste 10 Norte 0 -- -- 94
2021-02-13 01:00:00 10.9 3 Norte 10 Nordeste 0 -- -- 94
2021-02-13 00:00:00 10.9 2 Nordeste 11 Noroeste 0 -- -- 92
2021-02-12 23:00:00 11.7 0 Calma 19 Noroeste 0 -- -- 89
2021-02-12 22:00:00 12.4 12 Noroeste 19 Noroeste 0 -- -- 88
2021-02-12 21:00:00 13 14 Oeste 22 Oeste 0 -- -- 87
2021-02-12 20:00:00 13.7 16 Oeste 22 Oeste 0 -- -- 86
2021-02-12 19:00:00 15.2 17 Oeste 27 Oeste 0 -- -- 81
2021-02-12 18:00:00 16.9 19 Oeste 28 Noroeste 0 -- -- 75
2021-02-12 17:00:00 18.2 15 Noroeste 24 Oeste 0 -- -- 71
2021-02-12 16:00:00 18.6 12 Noroeste 27 Noroeste 0 -- -- 66
2021-02-12 15:00:00 18.2 16 Noroeste 26 Oeste 0 -- -- 63
2021-02-12 14:00:00 18 11 Noroeste 31 Noroeste 0 -- -- 72
2021-02-12 13:00:00 17.5 14 Noroeste 30 Noroeste 0 -- -- 76
2021-02-12 12:00:00 16.9 17 Oeste 23 Oeste 0 -- -- 83
2021-02-12 11:00:00 15.9 11 Noroeste 18 Noroeste 0 -- -- 89
2021-02-12 10:00:00 14.5 10 Noroeste 27 Noroeste 1.2 -- -- 94
2021-02-12 09:00:00 14.8 9 Oeste 16 Oeste 0 -- -- 96
2021-02-12 08:00:00 14.8 10 Oeste 22 Oeste 0 -- -- 95
2021-02-12 07:00:00 14.5 12 Oeste 24 Oeste 0 -- -- 95
2021-02-12 06:00:00 14.9 14 Oeste 23 Oeste 0 -- -- 95
2021-02-12 05:00:00 15 10 Oeste 22 Oeste 0 -- -- 95
2021-02-12 04:00:00 14.9 13 Oeste 27 Noroeste 0 -- -- 95
2021-02-12 03:00:00 14.7 7 Oeste 21 Oeste 0 -- -- 96
2021-02-12 02:00:00 14.3 10 Oeste 19 Oeste 0 -- -- 97
2021-02-12 01:00:00 13.6 8 Oeste 14 Oeste 0 -- -- 98
2021-02-12 00:00:00 13.6 6 Oeste 17 Oeste 0 -- -- 97
2021-02-11 23:00:00 13.6 12 Oeste 17 Oeste 0 -- -- 97
2021-02-11 22:00:00 13.9 14 Oeste 18 Oeste 0 -- -- 95
2021-02-11 21:00:00 14.2 15 Oeste 26 Noroeste 0 -- -- 94
2021-02-11 20:00:00 14.6 21 Oeste 27 Oeste 0 -- -- 93
2021-02-11 19:00:00 15.5 21 Oeste 30 Noroeste 0 -- -- 88
2021-02-11 18:00:00 16.4 19 Oeste 30 Oeste 0 -- -- 81
2021-02-11 17:00:00 17 17 Noroeste 24 Oeste 0 -- -- 79
2021-02-11 16:00:00 18 13 Oeste 23 Oeste 0 -- -- 76
2021-02-11 15:00:00 18.1 18 Oeste 26 Oeste 0 -- -- 80
2021-02-11 14:00:00 17.6 13 Noroeste 21 Noroeste 0 -- -- 78
2021-02-11 13:00:00 17.4 9 Sudoeste 15 Sudoeste 0 -- -- 83
2021-02-11 12:00:00 16.1 0 Calma 9 Sudeste 0 -- -- 89
2021-02-11 11:00:00 15.1 4 Sudeste 6 Sudeste 0 -- -- 97
2021-02-11 10:00:00 14.3 0 Calma 4 Noroeste 0 -- -- 98
2021-02-11 09:00:00 13.6 0 Calma 4 Noroeste 0 -- -- 98
2021-02-11 08:00:00 13.5 0 Calma 5 Sudeste 0 -- -- 98
2021-02-11 07:00:00 13.5 3 Este 5 Este 0 -- -- 98
2021-02-11 06:00:00 13.3 3 Este 6 Oeste 0 -- -- 97
2021-02-11 05:00:00 13.8 4 Oeste 13 Sudoeste 0 -- -- 97
2021-02-11 04:00:00 14.3 9 Sudoeste 21 Oeste 0 -- -- 96
2021-02-11 03:00:00 14.8 13 Sudoeste 18 Sudoeste 0 -- -- 95
2021-02-11 02:00:00 14.9 12 Oeste 16 Oeste 0 -- -- 95
2021-02-11 01:00:00 14.9 7 Sudoeste 16 Oeste 0 -- -- 96
2021-02-11 00:00:00 15.1 12 Oeste 18 Oeste 0 -- -- 95
2021-02-10 23:00:00 15 12 Oeste 20 Sudoeste 0 -- -- 95
2021-02-10 22:00:00 15 14 Oeste 28 Oeste 0 -- -- 95
2021-02-10 21:00:00 15.2 16 Oeste 27 Oeste 0 -- -- 94
2021-02-10 20:00:00 15.3 10 Oeste 24 Sudoeste 0 -- -- 94
2021-02-10 19:00:00 15.1 13 Oeste 36 Oeste 1.4 -- -- 94
2021-02-10 18:00:00 16.1 19 Oeste 36 Sudoeste 0 -- -- 90
2021-02-10 17:00:00 16.6 27 Oeste 45 Oeste 0 -- -- 87
2021-02-10 16:00:00 16.4 27 Oeste 44 Oeste 0 -- -- 87
2021-02-10 15:00:00 16.4 29 Oeste 45 Oeste 0 -- -- 87
2021-02-10 14:00:00 16.4 30 Oeste 46 Oeste 0 -- -- 87
2021-02-10 13:00:00 16.5 27 Oeste 51 Oeste 0 -- -- 88
2021-02-10 12:00:00 16.2 31 Oeste 46 Oeste 0 -- -- 88
2021-02-10 11:00:00 15.7 28 Oeste 43 Oeste 0 -- -- 89
2021-02-10 10:00:00 15.5 30 Oeste 42 Oeste 0 -- -- 88
2021-02-10 09:00:00 15.1 23 Oeste 39 Oeste 0 -- -- 91
2021-02-10 08:00:00 15 23 Oeste 36 Oeste 0 -- -- 92
2021-02-10 07:00:00 15 24 Oeste 42 Oeste 0 -- -- 92
2021-02-10 06:00:00 14.9 22 Oeste 41 Oeste 0.2 -- -- 93
2021-02-10 05:00:00 14.8 26 Oeste 44 Oeste 1.2 -- -- 93
2021-02-10 04:00:00 14.5 20 Oeste 30 Oeste 0 -- -- 95
2021-02-10 03:00:00 13.8 11 Oeste 32 Oeste 0 -- -- 92
2021-02-10 02:00:00 13.8 19 Oeste 44 Oeste 1.6 -- -- 90
2021-02-10 01:00:00 15.2 21 Oeste 33 Oeste 0 -- -- 91
2021-02-10 00:00:00 15 19 Oeste 33 Oeste 0 -- -- 91
2021-02-09 23:00:00 14.9 19 Oeste 51 Sudoeste 0 -- -- 91
2021-02-09 22:00:00 15 22 Sudoeste 34 Oeste 0 -- -- 90
2021-02-09 21:00:00 13.7 20 Oeste 51 Noroeste 0.4 -- -- 91
2021-02-09 20:00:00 14.9 19 Oeste 32 Oeste 0 -- -- 91
2021-02-09 19:00:00 14.3 18 Oeste 49 Oeste 0.6 -- -- 91
2021-02-09 18:00:00 15.1 21 Sudoeste 39 Oeste 0.4 -- -- 91
2021-02-09 17:00:00 15.5 26 Oeste 47 Oeste 0 -- -- 87
2021-02-09 16:00:00 15.3 31 Oeste 49 Sudoeste 0 -- -- 85
2021-02-09 15:00:00 16 25 Oeste 48 Oeste 0 -- -- 84
2021-02-09 14:00:00 16.5 21 Sudoeste 44 Sudoeste 0 -- -- 84
2021-02-09 13:00:00 16 22 Sudoeste 45 Sudoeste 0 -- -- 86
2021-02-09 12:00:00 15.8 22 Sudoeste 39 Oeste 0 -- -- 83
2021-02-09 11:00:00 15 19 Sudoeste 32 Sudoeste 0 -- -- 89
2021-02-09 10:00:00 14.3 11 Sudoeste 24 Sur 0 -- -- 83
2021-02-09 09:00:00 13.4 7 Sudoeste 20 Sudoeste 0 -- -- 88
2021-02-09 08:00:00 12.8 7 Sur 19 Sur 0 -- -- 90
2021-02-09 07:00:00 12.8 7 Sudoeste 21 Sudoeste 0 -- -- 94
2021-02-09 06:00:00 12 10 Sudoeste 21 Sudoeste 0.4 -- -- 98
2021-02-09 05:00:00 9.4 6 Este 9 Este 0 -- -- 97
2021-02-09 04:00:00 9.3 2 Nordeste 6 Nordeste 0 -- -- 95
2021-02-09 03:00:00 9.7 0 Calma 8 Sur 0 -- -- 94
2021-02-09 02:00:00 10.2 3 Sudoeste 6 Sur 0 -- -- 95
2021-02-09 01:00:00 10.7 0 Calma 3 Sudoeste 0 -- -- 91
2021-02-09 00:00:00 11.4 3 Sudoeste 16 Oeste 0 -- -- 91
2021-02-08 23:00:00 11.8 9 Oeste 16 Oeste 0 -- -- 90
2021-02-08 22:00:00 12.3 9 Oeste 21 Oeste 0 -- -- 86
2021-02-08 21:00:00 12.9 10 Oeste 21 Oeste 0 -- -- 85
2021-02-08 20:00:00 13.3 12 Oeste 24 Noroeste 0 -- -- 83
2021-02-08 19:00:00 14.1 14 Oeste 42 Oeste 0 -- -- 78
2021-02-08 18:00:00 15.4 18 Oeste 35 Oeste 0 -- -- 73
2021-02-08 17:00:00 15.3 22 Oeste 39 Oeste 0 -- -- 71
2021-02-08 16:00:00 15.8 31 Oeste 48 Oeste 0 -- -- 65
2021-02-08 15:00:00 16.2 23 Oeste 42 Noroeste 0 -- -- 67
2021-02-08 14:00:00 15.8 28 Oeste 42 Oeste 0 -- -- 66
2021-02-08 13:00:00 15.7 27 Oeste 45 Oeste 0 -- -- 71
2021-02-08 12:00:00 15.1 22 Noroeste 34 Oeste 0 -- -- 77
2021-02-08 11:00:00 14 10 Oeste 21 Noroeste 0 -- -- 84
2021-02-08 10:00:00 13.5 10 Noroeste 29 Oeste 0.2 -- -- 88
2021-02-08 09:00:00 13.6 23 Oeste 36 Oeste 0 -- -- 88
2021-02-08 08:00:00 13.5 24 Oeste 95 Oeste 6.6 -- -- 92
2021-02-08 07:00:00 14.1 24 Sudoeste 55 Oeste 0.8 -- -- 94
2021-02-08 06:00:00 13.9 24 Sudoeste 42 Sudoeste 1.4 -- -- 93
2021-02-08 05:00:00 13.9 23 Sudoeste 46 Sudoeste 0.6 -- -- 90
2021-02-08 04:00:00 13.6 23 Sudoeste 46 Sudoeste 0.4 -- -- 90
2021-02-08 03:00:00 13.3 17 Sudoeste 37 Oeste 0 -- -- 91
2021-02-08 02:00:00 12.9 17 Sudoeste 39 Sudoeste 0.2 -- -- 90
2021-02-08 01:00:00 12.6 13 Sudoeste 31 Sudoeste 0 -- -- 93
2021-02-08 00:00:00 12.8 13 Sudoeste 30 Oeste 0 -- -- 88
2021-02-07 23:00:00 12.2 13 Oeste 25 Sudoeste 0 -- -- 87
2021-02-07 22:00:00 12.1 17 Oeste 27 Oeste 0 -- -- 85
2021-02-07 21:00:00 11.8 10 Oeste 35 Oeste 0 -- -- 83
2021-02-07 20:00:00 12 2 Oeste 12 Sudoeste 0 -- -- 82
2021-02-07 19:00:00 12.1 7 Oeste 19 Oeste 0 -- -- 79
2021-02-07 18:00:00 12.7 13 Oeste 29 Oeste 0 -- -- 73
2021-02-07 17:00:00 12.7 22 Oeste 36 Oeste 0 -- -- 70
2021-02-07 16:00:00 12.5 27 Oeste 45 Noroeste 0 -- -- 67
2021-02-07 15:00:00 12.3 29 Oeste 53 Oeste 0 -- -- 67
2021-02-07 14:00:00 12.1 27 Oeste 45 Oeste 0 -- -- 67
2021-02-07 13:00:00 12.4 30 Oeste 42 Oeste 0 -- -- 73
2021-02-07 12:00:00 12 24 Oeste 42 Oeste 0 -- -- 77
2021-02-07 11:00:00 11.2 21 Noroeste 35 Noroeste 0 -- -- 79
2021-02-07 10:00:00 10.9 13 Noroeste 27 Oeste 0 -- -- 89
2021-02-07 09:00:00 10.5 13 Noroeste 23 Oeste 0 -- -- 90
2021-02-07 08:00:00 10.4 12 Noroeste 22 Noroeste 0 -- -- 92
2021-02-07 07:00:00 10.7 16 Noroeste 25 Oeste 0 -- -- 91
2021-02-07 06:00:00 10.5 11 Noroeste 17 Noroeste 0 -- -- 93
2021-02-07 05:00:00 10.4 5 Oeste 15 Noroeste 0 -- -- 94
2021-02-07 04:00:00 10.4 9 Oeste 21 Oeste 0.4 -- -- 94
2021-02-07 03:00:00 10.6 15 Oeste 23 Oeste 0.4 -- -- 92
2021-02-07 02:00:00 10.4 11 Oeste 25 Noroeste 0.6 -- -- 94
2021-02-07 01:00:00 10.2 14 Oeste 28 Oeste 0.6 -- -- 92
2021-02-07 00:00:00 10.9 12 Oeste 23 Oeste 0.2 -- -- 88
2021-02-06 23:00:00 11.3 21 Oeste 34 Oeste 0 -- -- 81
2021-02-06 22:00:00 11.7 19 Oeste 31 Oeste 0 -- -- 80
2021-02-06 21:00:00 11.7 14 Oeste 25 Oeste 0 -- -- 83
2021-02-06 20:00:00 12.3 10 Oeste 29 Oeste 0 -- -- 81
2021-02-06 19:00:00 12.7 17 Oeste 36 Oeste 0 -- -- 80
2021-02-06 18:00:00 13.3 25 Oeste 37 Noroeste 0 -- -- 78
2021-02-06 17:00:00 13.7 17 Oeste 37 Oeste 0 -- -- 81
2021-02-06 16:00:00 14.8 21 Oeste 38 Oeste 0 -- -- 73
2021-02-06 15:00:00 14 21 Oeste 44 Oeste 0 -- -- 79
2021-02-06 14:00:00 14.1 30 Oeste 42 Oeste 0.2 -- -- 81
2021-02-06 13:00:00 14.5 24 Oeste 36 Oeste 0 -- -- 77
2021-02-06 12:00:00 13.9 22 Oeste 37 Oeste 0 -- -- 82
2021-02-06 11:00:00 13.3 15 Oeste 27 Oeste 0 -- -- 83
2021-02-06 10:00:00 12.7 10 Oeste 18 Oeste 0 -- -- 85
2021-02-06 09:00:00 10.1 8 Oeste 12 Sudoeste 0 -- -- 91
2021-02-06 08:00:00 10.4 7 Sudoeste 12 Sudoeste 0 -- -- 90
2021-02-06 07:00:00 10.4 6 Oeste 10 Oeste 0 -- -- 91
2021-02-06 06:00:00 9.8 6 Oeste 10 Oeste 0 -- -- 92
2021-02-06 05:00:00 10.3 9 Oeste 17 Sudoeste 0 -- -- 90
2021-02-06 04:00:00 11.1 12 Oeste 19 Oeste 0 -- -- 91
2021-02-06 03:00:00 11.4 9 Oeste 26 Oeste 0 -- -- 93
2021-02-06 02:00:00 12.2 17 Oeste 28 Oeste 0 -- -- 92
2021-02-06 01:00:00 12.3 14 Sudoeste 32 Sudoeste 0.2 -- -- 92
2021-02-06 00:00:00 12.4 13 Sudoeste 32 Sudoeste 1 -- -- 93
2021-02-05 23:00:00 12.4 15 Sur 36 Sur 0.8 -- -- 89
2021-02-05 22:00:00 12.7 15 Sudoeste 43 Sudoeste 0.4 -- -- 83
2021-02-05 21:00:00 13.2 14 Sur 38 Sur 0 -- -- 85
2021-02-05 20:00:00 12.7 16 Sudoeste 39 Oeste 1.8 -- -- 88
2021-02-05 19:00:00 12.6 6 Sur 26 Sur 0.8 -- -- 90
2021-02-05 18:00:00 13.1 8 Sur 31 Sudoeste 0 -- -- 85
2021-02-05 17:00:00 13.4 17 Sur 36 Sur 1.2 -- -- 87
2021-02-05 16:00:00 12.8 13 Sudeste 24 Sudeste 0.8 -- -- 92
2021-02-05 15:00:00 14.1 9 Sur 31 Sur 0 -- -- 88
2021-02-05 14:00:00 15 11 Sudeste 20 Sur 0 -- -- 83
2021-02-05 13:00:00 14.9 7 Sudeste 12 Sudeste 0 -- -- 89
2021-02-05 12:00:00 14.3 4 Sudeste 13 Este 0 -- -- 93
2021-02-05 11:00:00 13.5 5 Sudeste 9 Sudeste 0.8 -- -- 94
2021-02-05 10:00:00 12.8 3 Sudeste 6 Sudeste 0 -- -- 95
2021-02-05 09:00:00 11.3 2 Oeste 11 Nordeste 0 -- -- 96
2021-02-05 08:00:00 10.6 3 Noroeste 5 Sudoeste 0 -- -- 96
2021-02-05 07:00:00 10.2 2 Este 8 Este 0 -- -- 94
2021-02-05 06:00:00 9.9 7 Oeste 10 Noroeste 0 -- -- 96
2021-02-05 05:00:00 10.7 6 Este 22 Sudoeste 0 -- -- 91
2021-02-05 04:00:00 11.7 10 Sudoeste 18 Sudoeste 0 -- -- 91
2021-02-05 03:00:00 11.3 4 Oeste 20 Oeste 0 -- -- 93
2021-02-05 02:00:00 11.2 6 Oeste 10 Oeste 0 -- -- 92
2021-02-05 01:00:00 12.1 5 Norte 12 Nordeste 0 -- -- 86
2021-02-05 00:00:00 13.4 6 Norte 12 Noroeste 0 -- -- 85
2021-02-04 23:00:00 14.2 6 Sudoeste 29 Oeste 0 -- -- 80
2021-02-04 22:00:00 14 13 Sudoeste 29 Oeste 0 -- -- 84
2021-02-04 21:00:00 13.6 10 Sudeste 15 Sudeste 0 -- -- 87
2021-02-04 20:00:00 14.4 0 Calma 6 Oeste 0 -- -- 87
2021-02-04 19:00:00 15.5 0 Calma 19 Este 0 -- -- 83
2021-02-04 18:00:00 16.9 13 Este 19 Este 0 -- -- 77
2021-02-04 17:00:00 17.1 0 Calma 13 Sudoeste 0 -- -- 77
2021-02-04 16:00:00 17.5 6 Sudoeste 13 Sudoeste 0 -- -- 70
2021-02-04 15:00:00 17.9 7 Sudoeste 18 Sur 0 -- -- 66
2021-02-04 14:00:00 17.3 10 Sur 19 Sudoeste 0 -- -- 71
2021-02-04 13:00:00 17.1 6 Sur 18 Sudoeste 0 -- -- 72
2021-02-04 12:00:00 15.9 14 Sudeste 19 Sudeste 0 -- -- 78
2021-02-04 11:00:00 13.9 7 Sudeste 13 Sudeste 0 -- -- 87
2021-02-04 10:00:00 11.6 8 Sur 15 Sudoeste 0 -- -- 94
2021-02-04 09:00:00 9.4 0 Calma 4 Sur 0 -- -- 95
2021-02-04 08:00:00 9.5 0 Calma 4 Oeste 0 -- -- 95
2021-02-04 07:00:00 10.5 3 Este 6 Sudeste 0 -- -- 94
2021-02-04 06:00:00 11.2 0 Calma 8 Sudeste 0 -- -- 94
2021-02-04 05:00:00 12.5 5 Sur 9 Sur 0 -- -- 91
2021-02-04 04:00:00 12.8 3 Sudeste 5 Sudeste 0 -- -- 92
2021-02-04 03:00:00 13.1 0 Calma 3 Sudoeste 0 -- -- 92
2021-02-04 02:00:00 13.2 0 Calma 4 Este 0 -- -- 92
2021-02-04 01:00:00 13.4 0 Calma 5 Este 0 -- -- 90
2021-02-04 00:00:00 13.6 5 Este 10 Sudoeste 0 -- -- 89
2021-02-03 23:00:00 14 5 Sudoeste 14 Oeste 0 -- -- 84
2021-02-03 22:00:00 13.8 10 Oeste 13 Sudoeste 0 -- -- 88
2021-02-03 21:00:00 14.1 11 Sudoeste 15 Sudoeste 0 -- -- 85
2021-02-03 20:00:00 14.2 14 Sudoeste 18 Sudoeste 0 -- -- 87
2021-02-03 19:00:00 14.6 10 Oeste 19 Oeste 0 -- -- 84
2021-02-03 18:00:00 15.5 16 Oeste 21 Oeste 0 -- -- 79
2021-02-03 17:00:00 16.2 13 Oeste 22 Oeste 0 -- -- 76
2021-02-03 16:00:00 17.1 12 Oeste 20 Oeste 0 -- -- 73
2021-02-03 15:00:00 17.7 11 Sudoeste 24 Oeste 0 -- -- 70
2021-02-03 14:00:00 17.5 13 Oeste 22 Oeste 0 -- -- 65
2021-02-03 13:00:00 16.8 14 Oeste 19 Noroeste 0 -- -- 69
2021-02-03 12:00:00 16.2 3 Norte 11 Noroeste 0 -- -- 76
2021-02-03 11:00:00 14.4 4 Este 6 Este 0 -- -- 93
2021-02-03 10:00:00 11 0 Calma 5 Oeste 0 -- -- 98
2021-02-03 09:00:00 10.3 4 Oeste 5 Noroeste 0 -- -- 98
2021-02-03 08:00:00 11.1 0 Calma 5 Nordeste 0 -- -- 98
2021-02-03 07:00:00 11.5 0 Calma 5 Oeste 0 -- -- 99
2021-02-03 06:00:00 10.6 2 Oeste 4 Oeste 0 -- -- 98
2021-02-03 05:00:00 10.8 3 Este 4 Este 0 -- -- 98
2021-02-03 04:00:00 10.3 2 Sudeste 4 Norte 0 -- -- 98
2021-02-03 03:00:00 9.7 3 Este 5 Este 0 -- -- 98
2021-02-03 02:00:00 9.5 3 Sudeste 7 Este 0 -- -- 97
2021-02-03 01:00:00 10.7 0 Calma 10 Oeste 0 -- -- 96
2021-02-03 00:00:00 12.1 3 Noroeste 17 Oeste 0 -- -- 96